sensor_id;sensor_type;location;lat;lon;timestamp;pressure;altitude;pressure_sealevel;temperature;humidity
56737;BME280;42618;51.226;4.910;2022-11-15T00:01:39;49750.94;;;-146.94;100.00
56737;BME280;42618;51.226;4.910;2022-11-15T00:04:25;49727.00;;;-146.94;100.00
56737;BME280;42618;51.226;4.910;2022-11-15T00:07:10;49729.00;;;-146.94;100.00
56737;BME280;42618;51.226;4.910;2022-11-15T00:10:11;49717.03;;;-146.94;100.00
56737;BME280;42618;51.226;4.910;2022-11-15T00:12:56;49736.97;;;-146.94;100.00
56737;BME280;42618;51.226;4.910;2022-11-15T00:15:41;49713.06;;;-146.94;100.00
56737;BME280;42618;51.226;4.910;2022-11-15T00:18:27;49798.78;;;-146.94;100.00
56737;BME280;42618;51.226;4.910;2022-11-15T00:21:13;49742.94;;;-146.94;100.00
56737;BME280;42618;51.226;4.910;2022-11-15T00:23:59;49750.94;;;-146.94;100.00
56737;BME280;42618;51.226;4.910;2022-11-15T00:26:44;49717.03;;;-146.94;100.00
56737;BME280;42618;51.226;4.910;2022-11-15T00:29:29;49733.00;;;-146.94;100.00
56737;BME280;42618;51.226;4.910;2022-11-15T00:32:14;49715.03;;;-146.94;100.00
56737;BME280;42618;51.226;4.910;2022-11-15T00:35:00;49709.06;;;-146.94;100.00
56737;BME280;42618;51.226;4.910;2022-11-15T00:37:45;49762.88;;;-146.94;100.00
56737;BME280;42618;51.226;4.910;2022-11-15T00:40:32;49790.81;;;-146.94;100.00
56737;BME280;42618;51.226;4.910;2022-11-15T00:43:17;49808.75;;;-146.94;100.00
56737;BME280;42618;51.226;4.910;2022-11-15T00:46:02;49729.00;;;-146.94;100.00
56737;BME280;42618;51.226;4.910;2022-11-15T00:48:48;49709.06;;;-146.94;100.00
56737;BME280;42618;51.226;4.910;2022-11-15T00:51:33;49723.03;;;-146.94;100.00
56737;BME280;42618;51.226;4.910;2022-11-15T00:54:18;49738.97;;;-146.94;100.00
56737;BME280;42618;51.226;4.910;2022-11-15T00:57:03;49750.94;;;-146.94;100.00
56737;BME280;42618;51.226;4.910;2022-11-15T00:59:49;49766.88;;;-146.94;100.00
56737;BME280;42618;51.226;4.910;2022-11-15T01:02:35;49725.00;;;-146.94;100.00
56737;BME280;42618;51.226;4.910;2022-11-15T01:05:20;49711.06;;;-146.94;100.00
56737;BME280;42618;51.226;4.910;2022-11-15T01:08:05;49727.00;;;-146.94;100.00
56737;BME280;42618;51.226;4.910;2022-11-15T01:10:50;49738.97;;;-146.94;100.00
56737;BME280;42618;51.226;4.910;2022-11-15T01:13:37;49752.91;;;-146.94;100.00
56737;BME280;42618;51.226;4.910;2022-11-15T01:16:22;49768.88;;;-146.94;100.00
56737;BME280;42618;51.226;4.910;2022-11-15T01:19:08;49727.00;;;-146.94;100.00
56737;BME280;42618;51.226;4.910;2022-11-15T01:21:53;49752.91;;;-146.94;100.00
56737;BME280;42618;51.226;4.910;2022-11-15T01:24:38;49738.97;;;-146.94;100.00
56737;BME280;42618;51.226;4.910;2022-11-15T01:27:24;49701.09;;;-146.94;100.00
56737;BME280;42618;51.226;4.910;2022-11-15T01:30:09;49760.91;;;-146.94;100.00
56737;BME280;42618;51.226;4.910;2022-11-15T01:32:54;49731.00;;;-146.94;100.00
56737;BME280;42618;51.226;4.910;2022-11-15T01:35:39;49703.09;;;-146.94;100.00
56737;BME280;42618;51.226;4.910;2022-11-15T01:38:25;49746.94;;;-146.94;100.00
56737;BME280;42618;51.226;4.910;2022-11-15T01:41:23;49810.75;;;-146.94;100.00
56737;BME280;42618;51.226;4.910;2022-11-15T01:47:25;49752.91;;;-146.94;100.00
56737;BME280;42618;51.226;4.910;2022-11-15T01:50:14;49742.94;;;-146.94;100.00
56737;BME280;42618;51.226;4.910;2022-11-15T01:53:00;49750.94;;;-146.94;100.00
56737;BME280;42618;51.226;4.910;2022-11-15T01:55:46;49719.03;;;-146.94;100.00
56737;BME280;42618;51.226;4.910;2022-11-15T01:58:31;49754.91;;;-146.94;100.00
56737;BME280;42618;51.226;4.910;2022-11-15T02:01:17;49750.94;;;-146.94;100.00
56737;BME280;42618;51.226;4.910;2022-11-15T02:04:11;49733.00;;;-146.94;100.00
56737;BME280;42618;51.226;4.910;2022-11-15T02:06:57;49733.00;;;-146.94;100.00
56737;BME280;42618;51.226;4.910;2022-11-15T02:09:44;49748.94;;;-146.94;100.00
56737;BME280;42618;51.226;4.910;2022-11-15T02:12:30;49703.09;;;-146.94;100.00
56737;BME280;42618;51.226;4.910;2022-11-15T02:15:17;49760.91;;;-146.94;100.00
56737;BME280;42618;51.226;4.910;2022-11-15T02:30:03;49719.03;;;-146.94;100.00
56737;BME280;42618;51.226;4.910;2022-11-15T02:33:19;49717.03;;;-146.94;100.00
56737;BME280;42618;51.226;4.910;2022-11-15T02:36:15;49764.88;;;-146.94;100.00
56737;BME280;42618;51.226;4.910;2022-11-15T02:39:19;49778.84;;;-146.94;100.00
56737;BME280;42618;51.226;4.910;2022-11-15T02:42:15;49760.91;;;-146.94;100.00
56737;BME280;42618;51.226;4.910;2022-11-15T02:45:27;49762.88;;;-146.94;100.00
56737;BME280;42618;51.226;4.910;2022-11-15T02:48:14;49772.84;;;-146.94;100.00
56737;BME280;42618;51.226;4.910;2022-11-15T02:51:00;49736.97;;;-146.94;100.00
56737;BME280;42618;51.226;4.910;2022-11-15T02:53:46;49774.84;;;-146.94;100.00
56737;BME280;42618;51.226;4.910;2022-11-15T02:56:31;49746.94;;;-146.94;100.00
56737;BME280;42618;51.226;4.910;2022-11-15T03:11:25;49727.00;;;-146.94;100.00
56737;BME280;42618;51.226;4.910;2022-11-15T03:14:30;49742.94;;;-146.94;100.00
56737;BME280;42618;51.226;4.910;2022-11-15T03:17:30;49740.97;;;-146.94;100.00
56737;BME280;42618;51.226;4.910;2022-11-15T03:20:20;49746.94;;;-146.94;100.00
56737;BME280;42618;51.226;4.910;2022-11-15T03:23:08;49746.94;;;-146.94;100.00
56737;BME280;42618;51.226;4.910;2022-11-15T03:25:55;49754.91;;;-146.94;100.00
56737;BME280;42618;51.226;4.910;2022-11-15T03:28:54;49748.94;;;-146.94;100.00
56737;BME280;42618;51.226;4.910;2022-11-15T03:31:45;49746.94;;;-146.94;100.00
56737;BME280;42618;51.226;4.910;2022-11-15T03:34:44;49762.88;;;-146.94;100.00
56737;BME280;42618;51.226;4.910;2022-11-15T03:40:37;49764.88;;;-146.94;100.00
56737;BME280;42618;51.226;4.910;2022-11-15T03:46:27;49762.88;;;-146.94;100.00
56737;BME280;42618;51.226;4.910;2022-11-15T03:49:17;49780.84;;;-146.94;100.00
56737;BME280;42618;51.226;4.910;2022-11-15T03:52:05;49778.84;;;-146.94;100.00
56737;BME280;42618;51.226;4.910;2022-11-15T03:54:53;49748.94;;;-146.94;100.00
56737;BME280;42618;51.226;4.910;2022-11-15T03:57:39;49727.00;;;-146.94;100.00
56737;BME280;42618;51.226;4.910;2022-11-15T04:00:24;49770.88;;;-146.94;100.00
56737;BME280;42618;51.226;4.910;2022-11-15T04:03:09;49774.84;;;-146.94;100.00
56737;BME280;42618;51.226;4.910;2022-11-15T04:05:55;49774.84;;;-146.94;100.00
56737;BME280;42618;51.226;4.910;2022-11-15T04:08:40;49746.94;;;-146.94;100.00
56737;BME280;42618;51.226;4.910;2022-11-15T04:11:25;49746.94;;;-146.94;100.00
56737;BME280;42618;51.226;4.910;2022-11-15T04:14:10;49734.97;;;-146.94;100.00
56737;BME280;42618;51.226;4.910;2022-11-15T04:16:55;49762.88;;;-146.94;100.00
56737;BME280;42618;51.226;4.910;2022-11-15T04:19:41;49723.03;;;-146.94;100.00
56737;BME280;42618;51.226;4.910;2022-11-15T04:22:45;49778.84;;;-146.94;100.00
56737;BME280;42618;51.226;4.910;2022-11-15T04:25:51;49734.97;;;-146.94;100.00
56737;BME280;42618;51.226;4.910;2022-11-15T04:28:37;49746.94;;;-146.94;100.00
56737;BME280;42618;51.226;4.910;2022-11-15T04:31:41;49750.94;;;-146.94;100.00
56737;BME280;42618;51.226;4.910;2022-11-15T04:34:27;49754.91;;;-146.94;100.00
56737;BME280;42618;51.226;4.910;2022-11-15T04:37:12;49750.94;;;-146.94;100.00
56737;BME280;42618;51.226;4.910;2022-11-15T04:39:57;49760.91;;;-146.94;100.00
56737;BME280;42618;51.226;4.910;2022-11-15T04:42:43;49746.94;;;-146.94;100.00
56737;BME280;42618;51.226;4.910;2022-11-15T04:45:28;49742.94;;;-146.94;100.00
56737;BME280;42618;51.226;4.910;2022-11-15T04:48:13;49729.00;;;-146.94;100.00
56737;BME280;42618;51.226;4.910;2022-11-15T04:50:58;49748.94;;;-146.94;100.00
56737;BME280;42618;51.226;4.910;2022-11-15T04:53:43;49742.94;;;-146.94;100.00
56737;BME280;42618;51.226;4.910;2022-11-15T04:56:29;49766.88;;;-146.94;100.00
56737;BME280;42618;51.226;4.910;2022-11-15T04:59:14;49762.88;;;-146.94;100.00
56737;BME280;42618;51.226;4.910;2022-11-15T05:02:00;49762.88;;;-146.94;100.00
56737;BME280;42618;51.226;4.910;2022-11-15T05:04:45;49754.91;;;-146.94;100.00
56737;BME280;42618;51.226;4.910;2022-11-15T05:07:30;49750.94;;;-146.94;100.00
56737;BME280;42618;51.226;4.910;2022-11-15T05:10:16;49748.94;;;-146.94;100.00
56737;BME280;42618;51.226;4.910;2022-11-15T05:13:01;49721.03;;;-146.94;100.00
56737;BME280;42618;51.226;4.910;2022-11-15T05:15:46;49731.00;;;-146.94;100.00
56737;BME280;42618;51.226;4.910;2022-11-15T05:18:32;49762.88;;;-146.94;100.00
56737;BME280;42618;51.226;4.910;2022-11-15T05:21:17;49750.94;;;-146.94;100.00
56737;BME280;42618;51.226;4.910;2022-11-15T05:24:03;49725.00;;;-146.94;100.00
56737;BME280;42618;51.226;4.910;2022-11-15T05:26:48;49734.97;;;-146.94;100.00
56737;BME280;42618;51.226;4.910;2022-11-15T05:29:33;49734.97;;;-146.94;100.00
56737;BME280;42618;51.226;4.910;2022-11-15T05:32:18;49738.97;;;-146.94;100.00
56737;BME280;42618;51.226;4.910;2022-11-15T05:35:05;49744.94;;;-146.94;100.00
56737;BME280;42618;51.226;4.910;2022-11-15T05:37:52;49742.94;;;-146.94;100.00
56737;BME280;42618;51.226;4.910;2022-11-15T05:40:37;49782.81;;;-146.94;100.00
56737;BME280;42618;51.226;4.910;2022-11-15T05:43:23;49734.97;;;-146.94;100.00
56737;BME280;42618;51.226;4.910;2022-11-15T05:46:09;49762.88;;;-146.94;100.00
56737;BME280;42618;51.226;4.910;2022-11-15T05:48:56;49766.88;;;-146.94;100.00
56737;BME280;42618;51.226;4.910;2022-11-15T05:51:43;49766.88;;;-146.94;100.00
56737;BME280;42618;51.226;4.910;2022-11-15T05:54:29;49788.81;;;-146.94;100.00
56737;BME280;42618;51.226;4.910;2022-11-15T05:57:16;49772.84;;;-146.94;100.00
56737;BME280;42618;51.226;4.910;2022-11-15T06:00:03;49748.94;;;-146.94;100.00
56737;BME280;42618;51.226;4.910;2022-11-15T06:02:48;49768.88;;;-146.94;100.00
56737;BME280;42618;51.226;4.910;2022-11-15T06:05:33;49778.84;;;-146.94;100.00
56737;BME280;42618;51.226;4.910;2022-11-15T06:08:18;49736.97;;;-146.94;100.00
56737;BME280;42618;51.226;4.910;2022-11-15T06:11:05;49742.94;;;-146.94;100.00
56737;BME280;42618;51.226;4.910;2022-11-15T06:13:50;49770.88;;;-146.94;100.00
56737;BME280;42618;51.226;4.910;2022-11-15T06:16:36;49754.91;;;-146.94;100.00
56737;BME280;42618;51.226;4.910;2022-11-15T06:19:21;49752.91;;;-146.94;100.00
56737;BME280;42618;51.226;4.910;2022-11-15T06:22:06;49742.94;;;-146.94;100.00
56737;BME280;42618;51.226;4.910;2022-11-15T06:24:51;49768.88;;;-146.94;100.00
56737;BME280;42618;51.226;4.910;2022-11-15T06:27:36;49776.84;;;-146.94;100.00
56737;BME280;42618;51.226;4.910;2022-11-15T06:30:23;49742.94;;;-146.94;100.00
56737;BME280;42618;51.226;4.910;2022-11-15T06:33:08;49802.75;;;-146.94;100.00
56737;BME280;42618;51.226;4.910;2022-11-15T06:35:54;49750.94;;;-146.94;100.00
56737;BME280;42618;51.226;4.910;2022-11-15T06:38:39;49790.81;;;-146.94;100.00
56737;BME280;42618;51.226;4.910;2022-11-15T06:41:24;49750.94;;;-146.94;100.00
56737;BME280;42618;51.226;4.910;2022-11-15T06:44:10;49762.88;;;-146.94;100.00
56737;BME280;42618;51.226;4.910;2022-11-15T06:46:55;49760.91;;;-146.94;100.00
56737;BME280;42618;51.226;4.910;2022-11-15T06:49:40;49762.88;;;-146.94;100.00
56737;BME280;42618;51.226;4.910;2022-11-15T06:52:26;49792.78;;;-146.94;100.00
56737;BME280;42618;51.226;4.910;2022-11-15T06:55:11;49748.94;;;-146.94;100.00
56737;BME280;42618;51.226;4.910;2022-11-15T06:57:56;49782.81;;;-146.94;100.00
56737;BME280;42618;51.226;4.910;2022-11-15T07:00:42;49786.81;;;-146.94;100.00
56737;BME280;42618;51.226;4.910;2022-11-15T07:03:27;49764.88;;;-146.94;100.00
56737;BME280;42618;51.226;4.910;2022-11-15T07:06:13;49784.81;;;-146.94;100.00
56737;BME280;42618;51.226;4.910;2022-11-15T07:08:58;49750.94;;;-146.94;100.00
56737;BME280;42618;51.226;4.910;2022-11-15T07:11:43;49764.88;;;-146.94;100.00
56737;BME280;42618;51.226;4.910;2022-11-15T07:14:28;49740.97;;;-146.94;100.00
56737;BME280;42618;51.226;4.910;2022-11-15T07:17:14;49750.94;;;-146.94;100.00
56737;BME280;42618;51.226;4.910;2022-11-15T07:19:59;49762.88;;;-146.94;100.00
56737;BME280;42618;51.226;4.910;2022-11-15T07:22:45;49762.88;;;-146.94;100.00
56737;BME280;42618;51.226;4.910;2022-11-15T07:25:31;49764.88;;;-146.94;100.00
56737;BME280;42618;51.226;4.910;2022-11-15T07:28:17;49760.91;;;-146.94;100.00
56737;BME280;42618;51.226;4.910;2022-11-15T07:31:07;49786.81;;;-146.94;100.00
56737;BME280;42618;51.226;4.910;2022-11-15T07:33:52;49774.84;;;-146.94;100.00
56737;BME280;42618;51.226;4.910;2022-11-15T07:36:38;49754.91;;;-146.94;100.00
56737;BME280;42618;51.226;4.910;2022-11-15T07:39:23;49772.84;;;-146.94;100.00
56737;BME280;42618;51.226;4.910;2022-11-15T07:42:08;49786.81;;;-146.94;100.00
56737;BME280;42618;51.226;4.910;2022-11-15T07:45:12;49758.91;;;-146.94;100.00
56737;BME280;42618;51.226;4.910;2022-11-15T07:47:57;49794.78;;;-146.94;100.00
56737;BME280;42618;51.226;4.910;2022-11-15T07:50:42;49788.81;;;-146.94;100.00
56737;BME280;42618;51.226;4.910;2022-11-15T07:53:28;49780.84;;;-146.94;100.00
56737;BME280;42618;51.226;4.910;2022-11-15T07:56:14;49792.78;;;-146.94;100.00
56737;BME280;42618;51.226;4.910;2022-11-15T07:58:59;49774.84;;;-146.94;100.00
56737;BME280;42618;51.226;4.910;2022-11-15T08:01:45;49766.88;;;-146.94;100.00
56737;BME280;42618;51.226;4.910;2022-11-15T08:04:31;49778.84;;;-146.94;100.00
56737;BME280;42618;51.226;4.910;2022-11-15T08:07:16;49748.94;;;-146.94;100.00
56737;BME280;42618;51.226;4.910;2022-11-15T08:10:02;49790.81;;;-146.94;100.00
56737;BME280;42618;51.226;4.910;2022-11-15T08:12:59;49790.81;;;-146.94;100.00
56737;BME280;42618;51.226;4.910;2022-11-15T08:15:45;49770.88;;;-146.94;100.00
56737;BME280;42618;51.226;4.910;2022-11-15T08:18:30;49790.81;;;-146.94;100.00
56737;BME280;42618;51.226;4.910;2022-11-15T08:21:18;49738.97;;;-146.94;100.00
56737;BME280;42618;51.226;4.910;2022-11-15T08:24:04;49796.78;;;-146.94;100.00
56737;BME280;42618;51.226;4.910;2022-11-15T08:26:49;49742.94;;;-146.94;100.00
56737;BME280;42618;51.226;4.910;2022-11-15T08:29:35;49766.88;;;-146.94;100.00
56737;BME280;42618;51.226;4.910;2022-11-15T08:32:22;49742.94;;;-146.94;100.00
56737;BME280;42618;51.226;4.910;2022-11-15T08:35:07;49736.97;;;-146.94;100.00
56737;BME280;42618;51.226;4.910;2022-11-15T08:37:53;49752.91;;;-146.94;100.00
56737;BME280;42618;51.226;4.910;2022-11-15T08:40:38;49734.97;;;-146.94;100.00
56737;BME280;42618;51.226;4.910;2022-11-15T08:43:24;49740.97;;;-146.94;100.00
56737;BME280;42618;51.226;4.910;2022-11-15T08:46:13;49768.88;;;-146.94;100.00
56737;BME280;42618;51.226;4.910;2022-11-15T08:48:58;49800.78;;;-146.94;100.00
56737;BME280;42618;51.226;4.910;2022-11-15T08:51:43;49727.00;;;-146.94;100.00
56737;BME280;42618;51.226;4.910;2022-11-15T08:54:28;49707.06;;;-146.94;100.00
56737;BME280;42618;51.226;4.910;2022-11-15T08:57:14;49719.03;;;-146.94;100.00
56737;BME280;42618;51.226;4.910;2022-11-15T09:00:00;49746.94;;;-146.94;100.00
56737;BME280;42618;51.226;4.910;2022-11-15T09:02:45;49750.94;;;-146.94;100.00
56737;BME280;42618;51.226;4.910;2022-11-15T09:05:30;49734.97;;;-146.94;100.00
56737;BME280;42618;51.226;4.910;2022-11-15T09:08:16;49740.97;;;-146.94;100.00
56737;BME280;42618;51.226;4.910;2022-11-15T09:11:21;49766.88;;;-146.94;100.00
56737;BME280;42618;51.226;4.910;2022-11-15T09:14:10;49733.00;;;-146.94;100.00
56737;BME280;42618;51.226;4.910;2022-11-15T09:16:55;49758.91;;;-146.94;100.00
56737;BME280;42618;51.226;4.910;2022-11-15T09:19:40;49738.97;;;-146.94;100.00
56737;BME280;42618;51.226;4.910;2022-11-15T09:22:26;49782.81;;;-146.94;100.00
56737;BME280;42618;51.226;4.910;2022-11-15T09:25:11;49758.91;;;-146.94;99.23
56737;BME280;42618;51.226;4.910;2022-11-15T09:27:56;49756.91;;;-146.94;98.69
56737;BME280;42618;51.226;4.910;2022-11-15T09:30:43;49752.91;;;-146.94;99.11
56737;BME280;42618;51.226;4.910;2022-11-15T09:33:29;49766.88;;;-146.94;99.39
56737;BME280;42618;51.226;4.910;2022-11-15T09:36:15;49766.88;;;-146.94;99.02
56737;BME280;42618;51.226;4.910;2022-11-15T09:39:01;49780.84;;;-146.94;99.42
56737;BME280;42618;51.226;4.910;2022-11-15T09:42:30;49717.03;;;-146.94;98.42
56737;BME280;42618;51.226;4.910;2022-11-15T09:48:26;49774.84;;;-146.94;97.92
56737;BME280;42618;51.226;4.910;2022-11-15T09:51:24;49734.97;;;-146.94;97.05
56737;BME280;42618;51.226;4.910;2022-11-15T09:56:56;49715.03;;;-146.94;94.99
56737;BME280;42618;51.226;4.910;2022-11-15T09:59:55;49615.38;;;-146.94;90.64
56737;BME280;42618;51.226;4.910;2022-11-15T10:05:23;49583.47;;;-146.94;85.42
56737;BME280;42618;51.226;4.910;2022-11-15T10:10:43;49641.28;;;-146.94;80.92
56737;BME280;42618;51.226;4.910;2022-11-15T10:13:15;49613.38;;;-146.94;80.37
56737;BME280;42618;51.226;4.910;2022-11-15T10:15:44;49685.13;;;-146.94;82.23
56737;BME280;42618;51.226;4.910;2022-11-15T10:20:49;49727.00;;;-146.94;82.33
56737;BME280;42618;51.226;4.910;2022-11-15T10:23:22;49746.94;;;-146.94;82.62
56737;BME280;42618;51.226;4.910;2022-11-15T10:25:58;49725.00;;;-146.94;83.73
56737;BME280;42618;51.226;4.910;2022-11-15T10:28:32;49750.94;;;-146.94;82.92
56737;BME280;42618;51.226;4.910;2022-11-15T10:31:00;49693.13;;;-146.94;83.28
56737;BME280;42618;51.226;4.910;2022-11-15T10:33:38;49731.00;;;-146.94;82.34
56737;BME280;42618;51.226;4.910;2022-11-15T10:41:21;49711.06;;;-146.94;80.23
56737;BME280;42618;51.226;4.910;2022-11-15T10:46:35;49703.09;;;-146.94;78.14
56737;BME280;42618;51.226;4.910;2022-11-15T10:49:19;49731.00;;;-146.94;78.71
56737;BME280;42618;51.226;4.910;2022-11-15T10:51:48;49709.06;;;-146.94;78.39
56737;BME280;42618;51.226;4.910;2022-11-15T10:54:40;49723.03;;;-146.94;78.37
56737;BME280;42618;51.226;4.910;2022-11-15T10:57:17;49707.06;;;-146.94;78.03
56737;BME280;42618;51.226;4.910;2022-11-15T10:59:47;49723.03;;;-146.94;79.02
56737;BME280;42618;51.226;4.910;2022-11-15T11:02:30;49721.03;;;-146.94;77.61
56737;BME280;42618;51.226;4.910;2022-11-15T11:04:59;49709.06;;;-146.94;78.72
56737;BME280;42618;51.226;4.910;2022-11-15T11:07:27;49701.09;;;-146.94;76.70
56737;BME280;42618;51.226;4.910;2022-11-15T11:10:24;49723.03;;;-146.94;76.37
56737;BME280;42618;51.226;4.910;2022-11-15T11:13:20;49691.13;;;-146.94;76.25
56737;BME280;42618;51.226;4.910;2022-11-15T11:16:02;49703.09;;;-146.94;75.22
56737;BME280;42618;51.226;4.910;2022-11-15T11:21:40;49701.09;;;-146.94;74.45
56737;BME280;42618;51.226;4.910;2022-11-15T11:24:18;49679.16;;;-146.94;72.91
56737;BME280;42618;51.226;4.910;2022-11-15T11:27:02;49663.22;;;-146.94;72.08
56737;BME280;42618;51.226;4.910;2022-11-15T11:29:36;49647.25;;;-146.94;69.43
56737;BME280;42618;51.226;4.910;2022-11-15T11:35:30;49667.19;;;-146.94;66.84
56737;BME280;42618;51.226;4.910;2022-11-15T11:40:39;49723.03;;;-146.94;68.89
56737;BME280;42618;51.226;4.910;2022-11-15T11:43:25;49643.28;;;-146.94;68.71
56737;BME280;42618;51.226;4.910;2022-11-15T11:49:10;49703.09;;;-146.94;71.17
56737;BME280;42618;51.226;4.910;2022-11-15T11:51:42;49683.16;;;-146.94;71.92
56737;BME280;42618;51.226;4.910;2022-11-15T11:56:59;49711.06;;;-146.94;71.96
56737;BME280;42618;51.226;4.910;2022-11-15T11:59:42;49683.16;;;-146.94;72.35
56737;BME280;42618;51.226;4.910;2022-11-15T12:02:29;49719.03;;;-146.94;72.84
56737;BME280;42618;51.226;4.910;2022-11-15T12:05:27;49709.06;;;-146.94;73.57
56737;BME280;42618;51.226;4.910;2022-11-15T12:08:08;49703.09;;;-146.94;74.69
56737;BME280;42618;51.226;4.910;2022-11-15T12:10:45;49681.16;;;-146.94;74.79
56737;BME280;42618;51.226;4.910;2022-11-15T12:13:18;49683.16;;;-146.94;73.97
56737;BME280;42618;51.226;4.910;2022-11-15T12:15:56;49703.09;;;-146.94;74.56
56737;BME280;42618;51.226;4.910;2022-11-15T12:18:24;49661.22;;;-146.94;75.11
56737;BME280;42618;51.226;4.910;2022-11-15T12:20:58;49707.06;;;-146.94;74.92
56737;BME280;42618;51.226;4.910;2022-11-15T12:23:30;49651.25;;;-146.94;75.56
56737;BME280;42618;51.226;4.910;2022-11-15T12:26:03;49679.16;;;-146.94;75.03
56737;BME280;42618;51.226;4.910;2022-11-15T12:28:43;49715.03;;;-146.94;75.75
56737;BME280;42618;51.226;4.910;2022-11-15T12:34:03;49695.09;;;-146.94;75.70
56737;BME280;42618;51.226;4.910;2022-11-15T12:36:39;49705.06;;;-146.94;76.18
56737;BME280;42618;51.226;4.910;2022-11-15T12:39:11;49683.16;;;-146.94;76.04
56737;BME280;42618;51.226;4.910;2022-11-15T12:41:43;49673.19;;;-146.94;76.36
56737;BME280;42618;51.226;4.910;2022-11-15T12:47:01;49746.94;;;-146.94;75.92
56737;BME280;42618;51.226;4.910;2022-11-15T12:59:49;49733.00;;;-146.94;77.56
56737;BME280;42618;51.226;4.910;2022-11-15T13:02:22;49731.00;;;-146.94;77.45
56737;BME280;42618;51.226;4.910;2022-11-15T13:04:51;49707.06;;;-146.94;78.05
56737;BME280;42618;51.226;4.910;2022-11-15T13:17:51;49729.00;;;-146.94;78.35
56737;BME280;42618;51.226;4.910;2022-11-15T13:31:23;49736.97;;;-146.94;80.31
56737;BME280;42618;51.226;4.910;2022-11-15T13:33:52;49705.06;;;-146.94;80.77
56737;BME280;42618;51.226;4.910;2022-11-15T13:36:22;49742.94;;;-146.94;81.04
56737;BME280;42618;51.226;4.910;2022-11-15T13:38:57;49691.13;;;-146.94;80.82
56737;BME280;42618;51.226;4.910;2022-11-15T13:41:29;49719.03;;;-146.94;80.56
56737;BME280;42618;51.226;4.910;2022-11-15T13:43:57;49705.06;;;-146.94;80.84
56737;BME280;42618;51.226;4.910;2022-11-15T13:46:26;49723.03;;;-146.94;80.81
56737;BME280;42618;51.226;4.910;2022-11-15T13:48:58;49711.06;;;-146.94;80.94
56737;BME280;42618;51.226;4.910;2022-11-15T13:51:36;49707.06;;;-146.94;80.95
56737;BME280;42618;51.226;4.910;2022-11-15T13:56:57;49701.09;;;-146.94;81.69
56737;BME280;42618;51.226;4.910;2022-11-15T13:59:29;49695.09;;;-146.94;82.08
56737;BME280;42618;51.226;4.910;2022-11-15T14:02:02;49703.09;;;-146.94;82.05
56737;BME280;42618;51.226;4.910;2022-11-15T14:04:30;49695.09;;;-146.94;82.88
56737;BME280;42618;51.226;4.910;2022-11-15T14:07:01;49715.03;;;-146.94;83.01
56737;BME280;42618;51.226;4.910;2022-11-15T14:12:01;49738.97;;;-146.94;83.35
56737;BME280;42618;51.226;4.910;2022-11-15T14:14:29;49697.09;;;-146.94;83.55
56737;BME280;42618;51.226;4.910;2022-11-15T14:16:58;49709.06;;;-146.94;83.67
56737;BME280;42618;51.226;4.910;2022-11-15T14:24:41;49713.06;;;-146.94;84.80
56737;BME280;42618;51.226;4.910;2022-11-15T14:27:19;49746.94;;;-146.94;84.76
56737;BME280;42618;51.226;4.910;2022-11-15T14:29:47;49723.03;;;-146.94;85.46
56737;BME280;42618;51.226;4.910;2022-11-15T14:32:22;49691.13;;;-146.94;85.72
56737;BME280;42618;51.226;4.910;2022-11-15T14:34:55;49711.06;;;-146.94;85.70
56737;BME280;42618;51.226;4.910;2022-11-15T14:37:30;49695.09;;;-146.94;85.85
56737;BME280;42618;51.226;4.910;2022-11-15T14:40:06;49713.06;;;-146.94;86.33
56737;BME280;42618;51.226;4.910;2022-11-15T14:42:32;49705.06;;;-146.94;86.46
56737;BME280;42618;51.226;4.910;2022-11-15T14:44:59;49695.09;;;-146.94;87.04
56737;BME280;42618;51.226;4.910;2022-11-15T14:47:26;49705.06;;;-146.94;87.34
56737;BME280;42618;51.226;4.910;2022-11-15T14:49:53;49691.13;;;-146.94;88.10
56737;BME280;42618;51.226;4.910;2022-11-15T14:52:31;49719.03;;;-146.94;88.09
56737;BME280;42618;51.226;4.910;2022-11-15T14:55:08;49703.09;;;-146.94;88.32
56737;BME280;42618;51.226;4.910;2022-11-15T14:57:38;49709.06;;;-146.94;88.79
56737;BME280;42618;51.226;4.910;2022-11-15T15:00:05;49707.06;;;-146.94;88.88
56737;BME280;42618;51.226;4.910;2022-11-15T15:02:38;49681.16;;;-146.94;89.17
56737;BME280;42618;51.226;4.910;2022-11-15T15:05:18;49727.00;;;-146.94;89.34
56737;BME280;42618;51.226;4.910;2022-11-15T15:07:45;49703.09;;;-146.94;89.77
56737;BME280;42618;51.226;4.910;2022-11-15T15:10:13;49691.13;;;-146.94;90.39
56737;BME280;42618;51.226;4.910;2022-11-15T15:13:00;49705.06;;;-146.94;91.83
56737;BME280;42618;51.226;4.910;2022-11-15T15:15:32;49689.13;;;-146.94;93.85
56737;BME280;42618;51.226;4.910;2022-11-15T15:18:00;49750.94;;;-146.94;95.74
56737;BME280;42618;51.226;4.910;2022-11-15T15:20:28;49695.09;;;-146.94;97.28
56737;BME280;42618;51.226;4.910;2022-11-15T15:22:55;49719.03;;;-146.94;98.75
56737;BME280;42618;51.226;4.910;2022-11-15T15:25:27;49711.06;;;-146.94;100.00
56737;BME280;42618;51.226;4.910;2022-11-15T15:27:54;49734.97;;;-146.94;100.00
56737;BME280;42618;51.226;4.910;2022-11-15T15:30:22;49731.00;;;-146.94;100.00
56737;BME280;42618;51.226;4.910;2022-11-15T15:32:49;49742.94;;;-146.94;100.00
56737;BME280;42618;51.226;4.910;2022-11-15T15:35:17;49740.97;;;-146.94;100.00
56737;BME280;42618;51.226;4.910;2022-11-15T15:37:44;49703.09;;;-146.94;100.00
56737;BME280;42618;51.226;4.910;2022-11-15T15:40:16;49717.03;;;-146.94;100.00
56737;BME280;42618;51.226;4.910;2022-11-15T15:42:43;49740.97;;;-146.94;100.00
56737;BME280;42618;51.226;4.910;2022-11-15T15:45:10;49713.06;;;-146.94;100.00
56737;BME280;42618;51.226;4.910;2022-11-15T15:47:38;49727.00;;;-146.94;100.00
56737;BME280;42618;51.226;4.910;2022-11-15T15:50:26;49727.00;;;-146.94;100.00